»·PEaware :: DIHNF KDTA-KCDC

DIHNF :: KDTA-KCDC

FLIGHT INFORMATION

Flight Status: Arrived
Operator: Unknown
More flights by this operator :: More flights under this callsign
Pilot: Klaus A. (15485)
Aircraft: BEECH AIRCRAFT BARON
(BE58)
More flights by this aircraft type
Origin: KDTA Delta Mun
United States
Destination: KCDC Cedar City Regl
United States
More flights between these airports :: More routes between these airports
Route: DTA V21 MLF V235 EHK
File this flight plan on PilotEdge
Remarks: Custom weather IFR, DEP. via ODP RWY 35
Altitude:
(Current/Filed)
12,000ft
Speed:
(Current/Filed)
170kts
Departed: 11-Nov-19 09:44 AM
Arrived: 11-Nov-19 11:01 AM
Distance/Time
Traveled:
105nm/1:17
Distance/Time
To Go:
Arrived

Flight Plot

Page will automatically refresh every two minutes.

Flight plan parsing failed; only flown route is shown


Map Options




Map Legend


Flown Route
Filed Route
Departure Airport
Arrival Airport
Navaid (VOR, NDB)
Fix

Horizontal Profiles

Position Reports

Time Latitude Longitude Heading Altitude Ground
Speed
11-Nov-19 09:19 39.385552 -112.511934 226 4762ft 0kts
11-Nov-19 09:20 39.385552 -112.511934 226 4762ft 0kts
11-Nov-19 09:21 39.385552 -112.511934 226 4762ft 0kts
11-Nov-19 09:21 39.385552 -112.511934 226 4762ft 0kts
11-Nov-19 09:23 39.385552 -112.511934 226 4762ft 0kts
11-Nov-19 09:23 39.385552 -112.511934 226 4762ft 0kts
11-Nov-19 09:24 39.385552 -112.511934 226 4762ft 0kts
11-Nov-19 09:26 39.385552 -112.511934 226 4762ft 0kts
11-Nov-19 09:26 39.385552 -112.511934 226 4762ft 0kts
11-Nov-19 09:27 39.385552 -112.511934 226 4762ft 0kts
11-Nov-19 09:28 39.385552 -112.511934 226 4762ft 0kts
11-Nov-19 09:29 39.385552 -112.511934 226 4762ft 0kts
11-Nov-19 09:30 39.385552 -112.511934 226 4762ft 0kts
11-Nov-19 09:31 39.385552 -112.511934 226 4762ft 0kts
11-Nov-19 09:32 39.385508 -112.511995 226 4762ft 3kts
11-Nov-19 09:33 39.383603 -112.511983 223 4762ft 11kts
11-Nov-19 09:34 39.381093 -112.510457 135 4762ft 13kts
11-Nov-19 09:35 39.377288 -112.505603 135 4762ft 21kts
11-Nov-19 09:36 39.375339 -112.503119 133 4762ft 0kts
11-Nov-19 09:37 39.375338 -112.503119 134 4762ft 0kts
11-Nov-19 09:38 39.375339 -112.503119 133 4762ft 0kts
11-Nov-19 09:39 39.375339 -112.503119 133 4762ft 0kts
11-Nov-19 09:40 39.375339 -112.503119 133 4762ft 0kts
11-Nov-19 09:41 39.375339 -112.503119 133 4762ft 0kts
11-Nov-19 09:42 39.374862 -112.502287 49 4762ft 2kts
11-Nov-19 09:43 39.389820 -112.501115 2 5077ft 115kts
11-Nov-19 09:44 39.421729 -112.500292 317 6460ft 118kts
11-Nov-19 09:45 39.407102 -112.526560 189 7748ft 128kts
11-Nov-19 09:46 39.371152 -112.530156 186 8899ft 133kts
11-Nov-19 09:47 39.333079 -112.532566 162 9845ft 148kts
11-Nov-19 09:48 39.301269 -112.499132 143 10837ft 149kts
11-Nov-19 09:49 39.266917 -112.478239 209 11642ft 142kts
11-Nov-19 09:50 39.234507 -112.509887 220 12077ft 159kts
11-Nov-19 09:51 39.197406 -112.547995 221 12065ft 178kts
11-Nov-19 09:52 39.157378 -112.587196 210 12022ft 183kts
11-Nov-19 09:53 39.111294 -112.615037 207 12029ft 183kts
11-Nov-19 09:54 39.064875 -112.642011 207 12031ft 183kts
11-Nov-19 09:55 39.018266 -112.668879 206 12031ft 183kts
11-Nov-19 09:56 38.971746 -112.695552 207 12031ft 183kts
11-Nov-19 09:57 38.925398 -112.722036 207 12025ft 181kts
11-Nov-19 09:58 38.884126 -112.745618 207 12029ft 180kts
11-Nov-19 09:59 38.838068 -112.771073 201 12028ft 181kts
11-Nov-19 10:00 38.787718 -112.779416 188 12028ft 183kts
11-Nov-19 10:01 38.736952 -112.785906 188 12026ft 183kts
11-Nov-19 10:02 38.693044 -112.814191 216 12041ft 177kts
11-Nov-19 10:03 38.650764 -112.847553 207 12028ft 180kts
11-Nov-19 10:04 38.604889 -112.873173 207 12030ft 180kts
11-Nov-19 10:05 38.559212 -112.899441 206 12033ft 179kts
11-Nov-19 10:06 38.513526 -112.925625 207 12031ft 180kts
11-Nov-19 10:07 38.467801 -112.951869 207 12030ft 180kts
11-Nov-19 10:08 38.422134 -112.977963 207 12031ft 180kts
11-Nov-19 10:09 38.380202 -113.001922 207 12031ft 180kts
11-Nov-19 10:10 38.330924 -113.010322 182 11796ft 183kts
11-Nov-19 10:11 38.280363 -113.014310 187 11149ft 182kts
11-Nov-19 10:12 38.230733 -113.022720 194 10451ft 179kts
11-Nov-19 10:13 38.181956 -113.029183 188 10082ft 166kts
11-Nov-19 10:14 38.136106 -113.034222 189 10130ft 165kts
11-Nov-19 10:15 38.090118 -113.040506 189 10129ft 167kts
11-Nov-19 10:16 38.043700 -113.044821 187 10076ft 171kts
11-Nov-19 10:17 37.997008 -113.049927 187 10105ft 168kts
11-Nov-19 10:18 37.950500 -113.053180 187 9887ft 169kts
11-Nov-19 10:19 37.903595 -113.058579 190 9098ft 173kts
11-Nov-19 10:20 37.857779 -113.064287 189 8063ft 161kts
11-Nov-19 10:21 37.814077 -113.064579 180 7390ft 151kts
11-Nov-19 10:22 37.772585 -113.074205 199 7013ft 150kts
11-Nov-19 10:23 37.731437 -113.082987 191 6144ft 147kts
11-Nov-19 10:24 37.698739 -113.104587 250 6589ft 125kts
11-Nov-19 10:25 37.719661 -113.132141 333 7969ft 123kts
11-Nov-19 10:26 37.751133 -113.148227 330 9272ft 124kts
11-Nov-19 10:27 37.785445 -113.168191 329 10032ft 146kts
11-Nov-19 10:28 37.821790 -113.201017 320 10008ft 170kts
11-Nov-19 10:29 37.841111 -113.252192 304 9967ft 158kts
11-Nov-19 10:30 37.866437 -113.295031 295 10005ft 149kts
11-Nov-19 10:31 37.884530 -113.342370 294 9997ft 149kts
11-Nov-19 10:32 37.902025 -113.389860 297 9993ft 148kts
11-Nov-19 10:33 37.928886 -113.371811 102 9991ft 168kts
11-Nov-19 10:34 37.912961 -113.315966 109 10010ft 169kts
11-Nov-19 10:35 37.880879 -113.306411 253 9988ft 150kts
11-Nov-19 10:36 37.909764 -113.324441 9 9999ft 155kts
11-Nov-19 10:37 37.951757 -113.310085 10 10002ft 156kts
11-Nov-19 10:38 37.993846 -113.295697 10 9999ft 157kts
11-Nov-19 10:39 38.036181 -113.281451 10 10000ft 157kts
11-Nov-19 10:40 38.078310 -113.266854 10 9999ft 157kts
11-Nov-19 10:41 38.120589 -113.252486 9 10000ft 157kts
11-Nov-19 10:42 38.164201 -113.237708 9 10043ft 170kts
11-Nov-19 10:43 38.211164 -113.222045 10 10002ft 175kts
11-Nov-19 10:44 38.258323 -113.206405 11 9999ft 175kts
11-Nov-19 10:45 38.300645 -113.180506 75 9968ft 184kts
11-Nov-19 10:46 38.267149 -113.143358 162 10009ft 173kts
11-Nov-19 10:47 38.221239 -113.125022 171 10006ft 172kts
11-Nov-19 10:48 38.174705 -113.112499 172 10055ft 165kts
11-Nov-19 10:49 38.129257 -113.101465 171 9846ft 170kts
11-Nov-19 10:50 38.083981 -113.089429 170 9783ft 158kts
11-Nov-19 10:51 38.040214 -113.077570 173 9661ft 159kts
11-Nov-19 10:52 37.996340 -113.065821 172 9627ft 161kts
11-Nov-19 10:53 37.952080 -113.052824 181 9552ft 164kts
11-Nov-19 10:54 37.906209 -113.055688 192 9059ft 165kts
11-Nov-19 10:55 37.860859 -113.064148 184 8306ft 166kts
11-Nov-19 10:56 37.815272 -113.064494 185 7667ft 162kts
11-Nov-19 10:57 37.770842 -113.071647 196 7016ft 158kts
11-Nov-19 10:58 37.730928 -113.083339 201 6057ft 135kts
11-Nov-19 10:59 37.703182 -113.097139 215 5625ft 68kts
11-Nov-19 11:00 37.696008 -113.101831 110 5625ft 0kts
11-Nov-19 11:01 37.696008 -113.101831 110 5625ft 0kts
11-Nov-19 11:02 37.696006 -113.101825 110 5625ft 0kts
11-Nov-19 11:03 37.696063 -113.099232 73 5625ft 0kts
11-Nov-19 11:04 37.696063 -113.099232 73 5625ft 0kts
11-Nov-19 11:05 37.696063 -113.099232 73 5625ft 0kts

Navigation Log

Ident Type
Flight plan parsing failed, navigation log unavailable